Time;durP1;ratioP1;P1;durP2;ratioP2;P2;SDS_P1;SDS_P2;PMS_P1;PMS_P2;Temp;Humidity;BMP_temperature;BMP_pressure;BME280_temperature;BME280_humidity;BME280_pressure;Samples;Min_cycle;Max_cycle;Signal;HPM_P1;HPM_P2
2022/09/19 00:01:26;;;;;;;9.18;1.55;;;11.80;99.90;;;;;;5100301;28;20169;-73
2022/09/19 00:03:58;;;;;;;6.70;1.40;;;11.90;99.90;;;;;;5095647;28;20593;-73
2022/09/19 00:06:26;;;;;;;;;;;11.80;99.90;;;;;;5096659;28;20040;-74
2022/09/19 00:08:52;;;;;;;8.77;1.10;;;11.80;99.90;;;;;;5096056;28;19916;-73
2022/09/19 00:11:19;;;;;;;9.68;1.35;;;11.80;99.90;;;;;;5096094;28;20492;-72
2022/09/19 00:13:47;;;;;;;8.98;1.50;;;11.80;99.90;;;;;;5094696;28;20117;-73
2022/09/19 00:16:23;;;;;;;9.55;1.30;;;11.80;99.90;;;;;;5109580;28;20051;-73
2022/09/19 00:18:50;;;;;;;10.25;1.40;;;11.80;99.90;;;;;;5108353;28;20040;-74
2022/09/19 00:21:27;;;;;;;6.20;1.35;;;11.80;99.90;;;;;;5111218;28;20036;-72
2022/09/19 00:26:40;;;;;;;10.60;1.33;;;11.80;99.90;;;;;;5096440;28;20047;-74
2022/09/19 00:29:07;;;;;;;8.32;1.48;;;11.80;99.90;;;;;;5095130;28;20494;-72
2022/09/19 00:31:33;;;;;;;7.72;1.10;;;11.80;99.90;;;;;;5095696;28;20047;-73
2022/09/19 00:34:00;;;;;;;9.07;1.00;;;11.80;99.90;;;;;;5095759;28;20040;-72
2022/09/19 00:36:26;;;;;;;8.50;1.40;;;11.80;99.90;;;;;;5109609;28;20047;-73
2022/09/19 00:38:52;;;;;;;14.93;1.85;;;11.90;99.90;;;;;;5114901;27;20032;-74
2022/09/19 00:41:26;;;;;;;9.55;1.45;;;11.90;99.90;;;;;;5115870;28;20536;-73
2022/09/19 00:43:58;;;;;;;9.90;1.30;;;11.80;99.90;;;;;;5115985;28;20372;-74
2022/09/19 00:46:27;;;;;;;8.18;1.42;;;11.80;99.90;;;;;;5115017;28;20032;-73
2022/09/19 00:49:03;;;;;;;8.65;1.20;;;11.80;99.90;;;;;;5115703;28;20122;-72
2022/09/19 00:51:33;;;;;;;12.93;1.88;;;11.80;99.90;;;;;;5099477;28;20039;-73
2022/09/19 00:54:04;;;;;;;10.93;1.45;;;11.90;99.90;;;;;;5115524;27;20035;-73
2022/09/19 00:56:31;;;;;;;7.43;1.27;;;11.90;99.90;;;;;;5115508;28;20036;-73
2022/09/19 00:58:59;;;;;;;11.10;1.65;;;11.90;99.90;;;;;;5114197;28;20043;-73
2022/09/19 01:01:25;;;;;;;9.95;1.30;;;11.90;99.90;;;;;;5114464;28;20484;-73
2022/09/19 01:03:53;;;;;;;10.27;1.88;;;11.90;99.90;;;;;;5101539;28;20080;-74
2022/09/19 01:06:59;;;;;;;13.63;2.03;;;11.90;99.90;;;;;;5094944;28;20067;-74
2022/09/19 01:09:43;;;;;;;12.43;1.98;;;11.90;99.90;;;;;;5087371;28;20180;-73
2022/09/19 01:12:32;;;;;;;14.32;1.63;;;11.90;99.90;;;;;;5099407;28;20476;-73
2022/09/19 01:15:14;;;;;;;12.60;1.70;;;11.80;99.90;;;;;;5114720;28;20100;-73
2022/09/19 01:17:48;;;;;;;;;;;11.80;99.90;;;;;;5115618;28;20040;-73
2022/09/19 01:20:38;;;;;;;12.65;1.70;;;11.80;99.90;;;;;;5107522;28;19961;-73
2022/09/19 01:23:36;;;;;;;9.65;1.58;;;11.80;99.90;;;;;;5111638;28;20549;-73
2022/09/19 01:26:39;;;;;;;9.35;1.50;;;11.80;99.90;;;;;;5115002;28;20047;-74
2022/09/19 01:29:17;;;;;;;13.32;1.95;;;11.90;99.90;;;;;;5111559;28;20097;-73
2022/09/19 01:31:46;;;;;;;11.38;1.50;;;11.90;99.90;;;;;;5094517;28;20051;-72
2022/09/19 01:34:37;;;;;;;10.40;1.65;;;11.80;99.90;;;;;;5094609;28;20387;-73
2022/09/19 01:37:28;;;;;;;9.02;1.73;;;11.80;99.90;;;;;;5076282;28;20044;-73
2022/09/19 01:39:56;;;;;;;8.65;1.77;;;11.80;99.90;;;;;;5076381;28;20499;-74
2022/09/19 01:42:22;;;;;;;12.90;1.85;;;11.80;99.90;;;;;;5094321;28;20032;-73
2022/09/19 01:44:48;;;;;;;15.05;2.05;;;11.80;99.90;;;;;;5093816;28;20119;-73
2022/09/19 01:47:49;;;;;;;8.85;1.38;;;11.80;99.90;;;;;;5094226;28;20093;-74
2022/09/19 01:50:27;;;;;;;8.10;1.40;;;11.80;99.90;;;;;;5098638;28;20035;-73
2022/09/19 01:53:13;;;;;;;11.73;2.20;;;11.80;99.90;;;;;;5112777;28;20488;-73
2022/09/19 01:55:56;;;;;;;10.27;1.88;;;11.90;99.90;;;;;;5114554;28;20043;-74
2022/09/19 01:58:28;;;;;;;10.85;1.52;;;11.90;99.90;;;;;;5114347;28;20066;-73
2022/09/19 02:01:05;;;;;;;12.63;2.10;;;11.90;99.90;;;;;;5113690;28;20031;-73
2022/09/19 02:04:12;;;;;;;13.20;1.75;;;11.90;99.90;;;;;;5111957;28;20040;-73
2022/09/19 02:06:48;;;;;;;10.48;1.70;;;11.90;99.90;;;;;;5105731;28;20067;-73
2022/09/19 02:09:47;;;;;;;11.02;1.70;;;11.80;99.90;;;;;;5113121;28;20054;-74
2022/09/19 02:12:15;;;;;;;8.38;1.30;;;11.90;99.90;;;;;;5093996;28;20044;-75
2022/09/19 02:14:42;;;;;;;9.45;1.50;;;11.90;99.90;;;;;;5093471;28;20048;-72
2022/09/19 02:17:13;;;;;;;7.57;1.50;;;11.90;99.90;;;;;;5096143;28;20083;-73
2022/09/19 02:19:53;;;;;;;10.85;1.42;;;11.90;99.90;;;;;;5100349;27;20383;-73
2022/09/19 02:22:28;;;;;;;11.85;1.92;;;11.90;99.90;;;;;;5098983;28;20083;-73
2022/09/19 02:24:58;;;;;;;10.60;1.60;;;11.90;99.90;;;;;;5093668;28;20043;-73
2022/09/19 02:27:37;;;;;;;10.75;1.33;;;11.90;99.90;;;;;;5093596;28;20044;-73
2022/09/19 02:30:08;;;;;;;14.68;1.73;;;11.90;99.90;;;;;;5092850;28;20050;-73
2022/09/19 02:32:35;;;;;;;10.80;1.80;;;11.90;99.90;;;;;;5093304;28;20119;-74
2022/09/19 02:35:03;;;;;;;10.73;1.50;;;11.90;99.90;;;;;;5096501;28;20044;-73
2022/09/19 02:37:35;;;;;;;9.20;1.30;;;11.90;99.90;;;;;;5113740;28;20047;-73
2022/09/19 02:40:07;;;;;;;12.05;1.58;;;11.80;99.90;;;;;;5112679;28;20043;-73
2022/09/19 02:42:36;;;;;;;;;;;11.90;99.90;;;;;;5114132;28;20040;-73
2022/09/19 02:45:06;;;;;;;10.38;2.03;;;11.90;99.90;;;;;;5109388;28;20395;-73
2022/09/19 02:47:45;;;;;;;7.50;1.27;;;11.90;99.90;;;;;;5093426;28;20047;-73
2022/09/19 02:50:17;;;;;;;10.73;1.63;;;11.80;99.90;;;;;;5103909;28;20043;-74
2022/09/19 02:52:45;;;;;;;13.40;1.55;;;11.90;99.90;;;;;;5094365;28;20040;-73
2022/09/19 02:55:22;;;;;;;12.50;1.85;;;11.80;99.90;;;;;;5091857;28;20048;-73
2022/09/19 02:57:51;;;;;;;11.50;1.50;;;11.90;99.90;;;;;;5093356;28;20092;-74
2022/09/19 03:00:17;;;;;;;17.60;2.03;;;11.90;99.90;;;;;;5092463;28;20043;-73
2022/09/19 03:02:56;;;;;;;11.57;1.58;;;11.90;99.90;;;;;;5097044;28;20024;-73
2022/09/19 03:05:27;;;;;;;10.20;2.13;;;11.90;99.90;;;;;;5113381;28;20400;-75
2022/09/19 03:08:01;;;;;;;14.40;1.92;;;11.90;99.90;;;;;;5113730;28;20074;-74
2022/09/19 03:10:40;;;;;;;11.07;2.05;;;12.00;99.90;;;;;;5101313;28;20039;-73
2022/09/19 03:13:08;;;;;;;10.93;1.75;;;12.00;99.90;;;;;;5093177;28;20062;-73
2022/09/19 03:15:47;;;;;;;9.88;1.88;;;12.00;99.90;;;;;;5092343;28;20492;-74
2022/09/19 03:18:16;;;;;;;13.35;2.00;;;12.00;99.90;;;;;;5092969;28;20488;-74
2022/09/19 03:20:49;;;;;;;9.85;1.92;;;12.00;99.90;;;;;;5101170;28;20043;-74
2022/09/19 03:23:22;;;;;;;14.70;2.08;;;12.00;99.90;;;;;;5113266;28;20480;-74
2022/09/19 03:25:47;;;;;;;8.68;1.42;;;12.00;99.90;;;;;;5112163;28;20408;-73
2022/09/19 03:28:19;;;;;;;12.73;1.67;;;12.00;99.90;;;;;;5103807;28;20047;-73
2022/09/19 03:30:45;;;;;;;9.20;1.70;;;12.00;99.90;;;;;;5095906;28;20058;-73
2022/09/19 03:33:15;;;;;;;8.77;1.70;;;12.00;99.90;;;;;;5096846;28;20044;-73
2022/09/19 03:35:41;;;;;;;9.80;1.63;;;12.00;99.90;;;;;;5105685;28;20506;-73
2022/09/19 03:38:06;;;;;;;8.70;1.60;;;12.00;99.90;;;;;;5117018;28;20043;-73
2022/09/19 03:40:32;;;;;;;10.75;1.92;;;12.00;99.90;;;;;;5114765;28;20040;-73
2022/09/19 03:42:58;;;;;;;11.70;2.05;;;12.00;99.90;;;;;;5117024;28;20067;-73
2022/09/19 03:45:24;;;;;;;8.35;1.60;;;12.00;99.90;;;;;;5116126;28;20063;-73
2022/09/19 03:47:49;;;;;;;10.43;1.73;;;12.00;99.90;;;;;;5116959;28;20054;-73
2022/09/19 03:50:15;;;;;;;12.40;1.83;;;12.00;99.90;;;;;;5115626;28;20407;-73
2022/09/19 03:52:41;;;;;;;10.85;1.40;;;11.90;99.90;;;;;;5099029;28;20407;-73
2022/09/19 03:55:07;;;;;;;13.65;1.73;;;12.00;99.90;;;;;;5116703;27;20080;-73
2022/09/19 03:57:32;;;;;;;13.85;2.50;;;12.00;99.90;;;;;;5108212;28;20047;-73
2022/09/19 03:59:58;;;;;;;10.98;2.15;;;12.00;99.90;;;;;;5096453;28;20039;-73
2022/09/19 04:02:23;;;;;;;8.55;1.50;;;12.00;99.90;;;;;;5096449;28;20036;-74
2022/09/19 04:04:49;;;;;;;10.77;1.70;;;12.00;99.90;;;;;;5098056;28;20048;-73
2022/09/19 04:07:15;;;;;;;10.10;1.92;;;12.00;99.90;;;;;;5116533;28;20112;-73
2022/09/19 04:09:41;;;;;;;12.45;1.63;;;12.00;99.90;;;;;;5114202;28;20058;-73
2022/09/19 04:12:07;;;;;;;14.48;2.38;;;12.10;99.90;;;;;;5115445;28;20400;-73
2022/09/19 04:14:34;;;;;;;12.52;1.83;;;12.00;99.90;;;;;;5115528;28;20106;-73
2022/09/19 04:17:00;;;;;;;11.48;1.90;;;12.00;99.90;;;;;;5116371;28;20052;-73
2022/09/19 04:19:26;;;;;;;13.55;1.90;;;12.00;99.90;;;;;;5116416;28;20407;-73
2022/09/19 04:21:53;;;;;;;9.95;1.45;;;12.00;99.90;;;;;;5109221;28;20042;-73
2022/09/19 04:24:21;;;;;;;11.73;1.73;;;12.00;99.90;;;;;;5116287;28;20039;-73
2022/09/19 04:26:49;;;;;;;10.68;1.75;;;11.90;99.90;;;;;;5116150;28;20052;-73
2022/09/19 04:29:15;;;;;;;10.60;1.88;;;11.90;99.90;;;;;;5114880;28;20052;-73
2022/09/19 04:31:41;;;;;;;10.77;1.75;;;11.90;99.90;;;;;;5097753;28;20051;-73
2022/09/19 04:34:13;;;;;;;8.35;1.35;;;12.00;99.90;;;;;;5095745;28;20048;-73
2022/09/19 04:36:39;;;;;;;12.00;1.92;;;12.00;99.90;;;;;;5095168;28;20040;-73
2022/09/19 04:39:06;;;;;;;12.20;1.60;;;12.00;99.90;;;;;;5101382;28;20031;-73
2022/09/19 04:41:34;;;;;;;11.07;2.28;;;11.90;99.90;;;;;;5114929;28;20077;-73
2022/09/19 04:44:01;;;;;;;9.85;1.63;;;11.90;99.90;;;;;;5115895;28;20476;-74
2022/09/19 04:46:28;;;;;;;12.63;2.33;;;12.00;99.90;;;;;;5114726;27;20031;-74
2022/09/19 04:48:55;;;;;;;10.48;1.70;;;12.00;99.90;;;;;;5103849;28;20070;-74
2022/09/19 04:51:21;;;;;;;11.43;1.85;;;12.00;99.90;;;;;;5110299;28;20587;-73
2022/09/19 04:53:48;;;;;;;12.02;1.70;;;12.00;99.90;;;;;;5127866;27;20067;-73
2022/09/19 04:56:14;;;;;;;14.18;1.67;;;12.00;99.90;;;;;;5115618;28;20036;-74
2022/09/19 04:58:40;;;;;;;9.88;1.50;;;12.00;99.90;;;;;;5115608;28;20035;-73
2022/09/19 05:01:06;;;;;;;9.43;1.77;;;12.00;99.90;;;;;;5102119;28;20124;-74
2022/09/19 05:03:33;;;;;;;9.75;2.00;;;12.00;99.90;;;;;;5095162;28;20036;-74
2022/09/19 05:05:59;;;;;;;11.93;2.00;;;12.10;99.90;;;;;;5094756;28;20056;-74
2022/09/19 05:08:27;;;;;;;10.15;1.67;;;12.10;99.90;;;;;;5094884;28;20121;-73
2022/09/19 05:10:54;;;;;;;10.90;1.90;;;12.00;99.90;;;;;;5103987;27;20092;-74
2022/09/19 05:13:24;;;;;;;14.15;1.60;;;12.20;99.90;;;;;;5114205;28;20047;-74
2022/09/19 05:15:51;;;;;;;13.15;1.85;;;12.10;99.90;;;;;;5115309;28;20043;-74
2022/09/19 05:18:20;;;;;;;16.10;1.92;;;12.00;99.90;;;;;;5115084;28;20484;-73
2022/09/19 05:20:45;;;;;;;13.00;2.63;;;12.00;99.90;;;;;;5111311;28;20092;-73
2022/09/19 05:23:11;;;;;;;10.07;1.63;;;12.00;99.90;;;;;;5109247;28;20035;-73
2022/09/19 05:25:38;;;;;;;14.45;2.00;;;12.00;99.90;;;;;;5114119;28;20035;-73
2022/09/19 05:28:06;;;;;;;11.77;1.60;;;12.00;99.90;;;;;;5114929;28;20039;-73
2022/09/19 05:30:33;;;;;;;10.65;1.67;;;12.00;99.90;;;;;;5107285;28;20036;-73
2022/09/19 05:33:02;;;;;;;10.40;1.77;;;12.00;99.90;;;;;;5094493;28;20044;-73
2022/09/19 05:35:29;;;;;;;12.48;1.70;;;12.00;99.90;;;;;;5101590;28;20038;-73
2022/09/19 05:37:56;;;;;;;14.43;1.77;;;12.00;99.90;;;;;;5113460;28;20054;-73
2022/09/19 05:40:22;;;;;;;16.90;2.08;;;12.10;99.90;;;;;;5113866;27;20092;-73
2022/09/19 05:42:48;;;;;;;13.85;2.15;;;12.10;99.90;;;;;;5112690;28;20578;-73
2022/09/19 05:45:14;;;;;;;8.40;1.40;;;12.10;99.90;;;;;;5112151;28;20115;-73
2022/09/19 05:47:40;;;;;;;15.70;1.98;;;12.00;99.90;;;;;;5114538;28;20086;-73
2022/09/19 05:50:08;;;;;;;13.75;1.77;;;12.00;99.90;;;;;;5109007;28;20068;-73
2022/09/19 05:55:22;;;;;;;14.98;2.00;;;11.90;99.90;;;;;;5100362;28;20373;-72
2022/09/19 05:57:52;;;;;;;16.55;2.00;;;12.00;99.90;;;;;;5114296;28;20050;-73
2022/09/19 06:00:19;;;;;;;9.90;1.42;;;12.00;99.90;;;;;;5109789;28;20047;-73
2022/09/19 06:02:56;;;;;;;11.10;1.70;;;12.00;99.90;;;;;;5093915;28;20070;-72
2022/09/19 06:05:23;;;;;;;17.27;2.15;;;12.00;99.90;;;;;;5092552;28;20094;-72
2022/09/19 06:07:49;;;;;;;13.38;1.90;;;12.00;99.90;;;;;;5093336;28;20047;-73
2022/09/19 06:10:15;;;;;;;11.43;1.73;;;12.00;99.90;;;;;;5100606;28;20054;-73
2022/09/19 06:12:40;;;;;;;9.65;1.45;;;12.00;99.90;;;;;;5112717;28;20043;-73
2022/09/19 06:15:07;;;;;;;13.68;1.98;;;12.00;99.90;;;;;;5113306;28;20047;-73
2022/09/19 06:17:32;;;;;;;10.20;2.05;;;12.00;99.90;;;;;;5114003;28;20048;-73
2022/09/19 06:19:58;;;;;;;11.32;1.70;;;12.10;99.90;;;;;;5108421;28;20488;-74
2022/09/19 06:22:23;;;;;;;12.55;2.20;;;12.10;99.90;;;;;;5105132;28;20507;-74
2022/09/19 06:24:49;;;;;;;9.77;2.00;;;12.10;99.90;;;;;;5103706;27;20092;-74
2022/09/19 06:27:14;;;;;;;14.52;1.95;;;12.20;99.90;;;;;;5102303;28;20408;-73
2022/09/19 06:29:40;;;;;;;8.98;1.70;;;12.20;99.90;;;;;;5100365;28;20047;-73
2022/09/19 06:32:06;;;;;;;13.75;1.77;;;12.20;99.90;;;;;;5109530;28;20043;-76
2022/09/19 06:34:31;;;;;;;12.25;1.80;;;12.10;99.90;;;;;;5113733;28;20110;-76
2022/09/19 06:36:57;;;;;;;8.88;1.58;;;12.10;99.90;;;;;;5113219;28;20045;-74
2022/09/19 06:39:22;;;;;;;13.23;1.83;;;12.10;99.90;;;;;;5110066;28;20032;-74
2022/09/19 06:41:48;;;;;;;10.90;1.58;;;12.20;99.90;;;;;;5110330;28;20088;-74
2022/09/19 06:44:14;;;;;;;10.88;1.77;;;12.20;99.90;;;;;;5094746;28;20080;-74
2022/09/19 06:46:40;;;;;;;10.43;1.80;;;12.30;99.90;;;;;;5111163;28;20053;-74
2022/09/19 06:49:09;;;;;;;11.98;2.28;;;12.50;99.90;;;;;;5113150;28;20035;-73
2022/09/19 06:51:35;;;;;;;16.15;2.22;;;12.50;99.90;;;;;;5113236;28;20555;-74
2022/09/19 06:54:01;;;;;;;13.65;2.25;;;12.60;99.90;;;;;;5113631;28;20044;-74
2022/09/19 06:56:26;;;;;;;16.73;2.50;;;12.60;99.90;;;;;;5112752;28;20039;-74
2022/09/19 06:58:52;;;;;;;14.80;2.83;;;12.60;99.90;;;;;;5104903;28;20047;-74
2022/09/19 07:01:18;;;;;;;11.70;2.50;;;12.60;99.90;;;;;;5098854;28;20036;-73
2022/09/19 07:03:43;;;;;;;16.27;2.13;;;12.60;99.90;;;;;;5097022;28;20495;-74
2022/09/19 07:06:09;;;;;;;11.57;1.63;;;12.70;99.90;;;;;;5096814;28;20044;-74
2022/09/19 07:08:35;;;;;;;12.38;1.48;;;12.60;99.90;;;;;;5097094;28;20154;-74
2022/09/19 07:11:00;;;;;;;11.32;1.25;;;12.70;99.90;;;;;;5095487;28;20151;-74
2022/09/19 07:13:26;;;;;;;11.70;1.42;;;12.70;99.90;;;;;;5121652;27;20044;-74
2022/09/19 07:15:52;;;;;;;8.63;1.50;;;12.70;99.90;;;;;;5104807;28;20035;-74
2022/09/19 07:18:18;;;;;;;7.88;1.48;;;12.70;99.90;;;;;;5116450;28;20088;-74
2022/09/19 07:20:44;;;;;;;10.15;1.65;;;12.70;99.90;;;;;;5099416;28;20071;-74
2022/09/19 07:23:15;;;;;;;10.52;1.50;;;12.70;99.90;;;;;;5102513;28;20027;-74
2022/09/19 07:25:43;;;;;;;9.75;1.75;;;12.80;99.90;;;;;;5116563;28;20048;-73
2022/09/19 07:28:14;;;;;;;11.75;1.98;;;12.80;99.90;;;;;;5104066;28;20040;-74
2022/09/19 07:30:43;;;;;;;11.45;1.63;;;12.80;99.90;;;;;;5102522;28;20114;-73
2022/09/19 07:33:11;;;;;;;10.35;1.55;;;12.90;99.90;;;;;;5100882;28;20051;-73
2022/09/19 07:35:37;;;;;;;11.00;1.85;;;12.90;99.90;;;;;;5106494;28;20050;-73
2022/09/19 07:38:06;;;;;;;11.15;1.27;;;13.00;99.90;;;;;;5108543;28;20044;-73
2022/09/19 07:40:33;;;;;;;11.07;1.58;;;13.00;99.90;;;;;;5113517;28;20035;-73
2022/09/19 07:43:01;;;;;;;9.32;1.50;;;13.00;99.90;;;;;;5113846;28;20119;-73
2022/09/19 07:45:27;;;;;;;10.23;1.65;;;13.10;99.90;;;;;;5111636;28;20035;-73
2022/09/19 07:47:55;;;;;;;10.00;2.10;;;13.10;99.90;;;;;;5107578;28;20445;-73
2022/09/19 07:50:21;;;;;;;9.73;1.92;;;13.10;99.90;;;;;;5097618;28;20660;-73
2022/09/19 07:52:47;;;;;;;9.80;1.77;;;13.20;99.90;;;;;;5110330;28;20040;-73
2022/09/19 07:55:15;;;;;;;10.05;1.83;;;13.20;99.90;;;;;;5133709;27;20031;-73
2022/09/19 07:57:51;;;;;;;13.77;2.67;;;13.20;99.90;;;;;;5102836;28;20061;-72
2022/09/19 08:00:17;;;;;;;12.30;2.13;;;13.20;99.90;;;;;;5103133;27;20048;-73
2022/09/19 08:02:43;;;;;;;10.82;1.73;;;13.30;99.90;;;;;;5111258;28;20042;-73
2022/09/19 08:05:09;;;;;;;10.50;1.92;;;13.40;99.90;;;;;;5111732;28;20130;-73
2022/09/19 08:07:34;;;;;;;13.65;2.40;;;13.60;99.90;;;;;;5110242;28;20097;-73
2022/09/19 08:10:02;;;;;;;13.73;2.60;;;13.70;99.90;;;;;;5114631;28;20088;-73
2022/09/19 08:12:30;;;;;;;13.65;2.25;;;13.70;99.90;;;;;;5111947;28;20104;-73
2022/09/19 08:14:56;;;;;;;15.77;1.90;;;13.80;99.90;;;;;;5115191;28;20082;-73
2022/09/19 08:17:21;;;;;;;10.07;2.00;;;13.80;99.90;;;;;;5110803;28;20080;-74
2022/09/19 08:19:47;;;;;;;13.60;1.80;;;13.70;99.90;;;;;;5114444;28;20035;-74
2022/09/19 08:22:13;;;;;;;9.38;1.30;;;13.60;99.90;;;;;;5105755;28;20140;-73
2022/09/19 08:24:38;;;;;;;10.85;1.90;;;13.60;99.90;;;;;;5106239;28;20027;-73
2022/09/19 08:27:04;;;;;;;13.02;1.75;;;13.50;99.90;;;;;;5114507;28;20039;-74
2022/09/19 08:29:32;;;;;;;6.65;1.55;;;13.50;99.90;;;;;;5114951;28;20484;-74
2022/09/19 08:31:59;;;;;;;10.43;1.77;;;13.40;99.90;;;;;;5111769;28;20036;-74
2022/09/19 08:34:25;;;;;;;7.30;1.25;;;13.40;99.90;;;;;;5102071;28;20032;-74
2022/09/19 08:36:53;;;;;;;9.85;1.50;;;13.40;99.90;;;;;;5109875;28;20144;-74
2022/09/19 08:39:19;;;;;;;11.13;1.70;;;13.40;99.90;;;;;;5113788;28;20050;-73
2022/09/19 08:42:02;;;;;;;14.45;1.85;;;13.50;99.90;;;;;;5105327;28;20032;-73
2022/09/19 08:44:42;;;;;;;11.50;2.42;;;13.60;99.90;;;;;;5103086;28;20051;-73
2022/09/19 08:47:13;;;;;;;12.50;1.90;;;13.70;99.90;;;;;;5115273;28;20128;-73
2022/09/19 08:49:54;;;;;;;13.02;2.00;;;13.90;99.90;;;;;;5096109;28;20036;-73
2022/09/19 08:52:36;;;;;;;12.25;2.13;;;14.00;99.90;;;;;;5111907;28;20495;-73
2022/09/19 08:55:05;;;;;;;;;;;14.10;99.90;;;;;;5113037;28;20093;-73
2022/09/19 08:58:01;;;;;;;13.32;2.08;;;14.30;99.90;;;;;;5094559;28;20296;-74
2022/09/19 09:00:37;;;;;;;16.00;2.35;;;14.50;99.90;;;;;;5100494;28;20044;-74
2022/09/19 09:03:05;;;;;;;9.38;1.73;;;14.60;99.90;;;;;;5087550;28;20032;-74
2022/09/19 09:06:15;;;;;;;12.32;2.28;;;14.70;99.90;;;;;;5099195;28;20098;-74
2022/09/19 09:09:07;;;;;;;12.60;1.90;;;14.80;99.90;;;;;;5082809;28;20079;-74
2022/09/19 09:11:39;;;;;;;25.23;7.25;;;14.90;99.90;;;;;;5103901;28;20047;-74
2022/09/19 09:14:17;;;;;;;12.48;2.00;;;15.10;99.90;;;;;;5095969;28;20047;-74
2022/09/19 09:17:10;;;;;;;11.02;2.10;;;15.20;99.90;;;;;;5097606;28;20399;-74
2022/09/19 09:19:56;;;;;;;11.98;2.05;;;15.30;99.90;;;;;;5099131;28;20550;-74
2022/09/19 09:22:27;;;;;;;15.23;2.22;;;15.40;99.90;;;;;;5099754;28;20090;-74
2022/09/19 09:25:05;;;;;;;15.40;2.10;;;15.40;99.90;;;;;;5104219;28;20411;-73
2022/09/19 09:27:54;;;;;;;15.65;2.22;;;15.50;99.90;;;;;;5102208;28;20601;-74
2022/09/19 09:30:20;;;;;;;14.48;2.15;;;15.50;99.90;;;;;;5096050;28;20036;-74
2022/09/19 09:32:51;;;;;;;10.38;1.52;;;15.50;99.90;;;;;;5100165;28;20053;-74
2022/09/19 09:35:32;;;;;;;14.23;2.03;;;15.50;99.90;;;;;;5104736;28;20179;-74
2022/09/19 09:38:12;;;;;;;10.88;2.15;;;15.50;99.90;;;;;;5102198;28;20036;-74
2022/09/19 09:43:50;;;;;;;11.93;2.10;;;15.50;99.90;;;;;;5104888;28;20082;-74
2022/09/19 09:46:29;;;;;;;11.85;2.03;;;15.50;99.90;;;;;;5093702;28;20035;-73
2022/09/19 09:48:55;;;;;;;8.75;1.92;;;15.50;99.90;;;;;;5125571;27;20063;-74
2022/09/19 09:51:39;;;;;;;14.93;2.53;;;15.40;99.90;;;;;;5093345;28;20044;-74
2022/09/19 09:57:32;;;;;;;13.68;1.70;;;15.10;99.90;;;;;;5081983;28;20071;-74
2022/09/19 10:06:12;;;;;;;7.70;1.55;;;15.60;99.90;;;;;;5097495;28;19920;-74
2022/09/19 10:08:59;;;;;;;5.15;1.17;;;15.80;99.90;;;;;;5102423;27;20399;-74
2022/09/19 10:11:48;;;;;;;6.35;1.13;;;15.50;99.90;;;;;;5108027;27;20467;-74
2022/09/19 10:14:19;;;;;;;8.50;1.17;;;15.20;99.90;;;;;;5096649;28;20043;-74
2022/09/19 10:16:48;;;;;;;8.07;1.40;;;14.80;99.90;;;;;;5097274;28;20040;-75
2022/09/19 10:19:33;;;;;;;10.20;1.55;;;14.70;99.90;;;;;;5098303;28;20084;-74
2022/09/19 10:21:59;;;;;;;6.95;1.10;;;14.50;99.90;;;;;;5098295;28;20387;-74
2022/09/19 10:24:40;;;;;;;8.00;1.27;;;14.10;99.90;;;;;;5094391;28;20565;-74
2022/09/19 10:27:26;;;;;;;8.07;1.00;;;14.00;99.90;;;;;;5093409;28;20051;-74
2022/09/19 10:30:11;;;;;;;6.25;1.20;;;13.90;99.90;;;;;;5108965;28;20032;-74
2022/09/19 10:32:37;;;;;;;9.48;1.58;;;13.90;99.90;;;;;;5107956;27;20040;-74
2022/09/19 10:35:28;;;;;;;9.20;1.25;;;13.80;99.90;;;;;;5102528;28;20032;-75
2022/09/19 10:38:01;;;;;;;9.63;1.35;;;13.70;99.90;;;;;;5098830;28;20043;-74
2022/09/19 10:40:31;;;;;;;6.65;1.52;;;13.70;99.90;;;;;;5128864;27;20137;-75
2022/09/19 10:42:59;;;;;;;7.05;1.25;;;13.70;99.90;;;;;;5106230;28;20032;-74
2022/09/19 10:45:36;;;;;;;4.63;1.10;;;13.70;99.90;;;;;;5100073;28;20036;-74
2022/09/19 10:48:18;;;;;;;6.63;1.20;;;13.60;99.90;;;;;;5094637;28;20039;-74
2022/09/19 10:50:47;;;;;;;9.18;1.30;;;13.60;99.90;;;;;;5125196;27;20060;-74
2022/09/19 10:53:25;;;;;;;8.50;1.23;;;13.60;99.90;;;;;;5094446;28;20035;-74
2022/09/19 10:55:52;;;;;;;10.55;1.40;;;13.70;99.90;;;;;;5105317;28;20040;-74
2022/09/19 10:58:26;;;;;;;9.52;1.60;;;13.70;99.90;;;;;;5106173;28;20052;-73
2022/09/19 11:00:55;;;;;;;8.55;1.73;;;13.80;99.90;;;;;;5093518;28;20115;-73
2022/09/19 11:03:29;;;;;;;8.40;1.95;;;13.90;99.90;;;;;;5090520;28;20052;-73
2022/09/19 11:06:06;;;;;;;10.85;1.90;;;14.00;99.90;;;;;;5090984;28;20492;-73
2022/09/19 11:08:46;;;;;;;8.38;1.65;;;14.00;99.90;;;;;;5100614;28;20101;-73
2022/09/19 11:11:25;;;;;;;11.27;2.42;;;14.30;99.90;;;;;;5092098;28;20047;-73
2022/09/19 11:14:18;;;;;;;11.00;2.03;;;14.30;99.90;;;;;;5104325;28;20071;-74
2022/09/19 11:17:08;;;;;;;13.13;2.00;;;14.50;99.90;;;;;;5102145;28;20472;-73
2022/09/19 11:20:16;;;;;;;13.90;2.20;;;14.50;99.90;;;;;;5102215;28;20036;-73
2022/09/19 11:22:56;;;;;;;14.10;2.40;;;14.70;99.90;;;;;;5099488;28;20408;-73
2022/09/19 11:25:41;;;;;;;10.35;2.70;;;14.60;99.90;;;;;;5091405;28;20197;-73
2022/09/19 11:28:47;;;;;;;10.32;1.85;;;14.60;99.90;;;;;;5100671;28;20044;-73
2022/09/19 11:31:32;;;;;;;9.27;1.60;;;14.70;99.90;;;;;;5103196;28;20080;-73
2022/09/19 11:34:15;;;;;;;13.13;2.20;;;14.70;99.90;;;;;;5093232;28;20038;-74
2022/09/19 11:36:57;;;;;;;7.05;1.30;;;14.70;99.90;;;;;;5093523;28;20048;-73
2022/09/19 11:39:43;;;;;;;11.65;1.85;;;14.60;99.90;;;;;;5093003;28;20107;-73
2022/09/19 11:42:08;;;;;;;12.40;2.17;;;14.60;99.90;;;;;;5082139;28;20036;-74
2022/09/19 11:44:49;;;;;;;13.25;2.10;;;14.50;99.90;;;;;;5099519;28;20442;-73
2022/09/19 11:47:36;;;;;;;12.73;2.28;;;14.40;99.90;;;;;;5096493;28;20035;-74
2022/09/19 11:50:29;;;;;;;9.40;1.98;;;14.40;99.90;;;;;;5101303;28;20438;-74
2022/09/19 11:53:39;;;;;;;10.30;1.90;;;14.40;99.90;;;;;;5094039;28;20067;-73
2022/09/19 11:56:16;;;;;;;11.68;2.10;;;14.50;99.90;;;;;;5048992;28;20051;-74
2022/09/19 11:58:51;;;;;;;13.18;1.90;;;14.60;99.90;;;;;;5127704;27;20067;-74
2022/09/19 12:01:50;;;;;;;10.30;1.80;;;14.70;99.90;;;;;;5098956;28;20472;-74
2022/09/19 12:04:36;;;;;;;13.77;1.98;;;14.70;99.90;;;;;;5098381;28;20071;-73
2022/09/19 12:07:25;;;;;;;13.30;2.08;;;14.70;99.90;;;;;;5096119;28;20089;-74
2022/09/19 12:10:12;;;;;;;13.38;2.05;;;14.80;99.90;;;;;;5097123;28;20176;-75
2022/09/19 12:12:43;;;;;;;9.23;1.50;;;14.80;99.90;;;;;;5104882;27;20123;-74
2022/09/19 12:15:22;;;;;;;10.18;1.67;;;14.80;99.90;;;;;;5113286;28;20055;-74
2022/09/19 12:18:22;;;;;;;11.07;1.70;;;14.90;99.90;;;;;;5101215;28;20055;-74
2022/09/19 12:20:53;;;;;;;14.82;2.13;;;15.00;99.90;;;;;;5084323;28;20055;-75
2022/09/19 12:26:32;;;;;;;14.45;2.08;;;15.10;99.90;;;;;;5095191;28;20040;-74
2022/09/19 12:29:28;;;;;;;10.30;1.90;;;15.30;99.90;;;;;;5109330;28;20441;-77
2022/09/19 12:32:05;;;;;;;12.75;1.83;;;15.40;99.90;;;;;;5090293;28;20413;-76
2022/09/19 12:34:44;;;;;;;9.07;1.60;;;15.40;99.90;;;;;;5104225;28;20553;-77
2022/09/19 12:37:30;;;;;;;13.82;1.80;;;15.30;99.90;;;;;;5109880;28;20472;-77
2022/09/19 12:40:11;;;;;;;14.80;2.10;;;15.30;99.90;;;;;;5100415;28;20081;-76
2022/09/19 12:42:44;;;;;;;12.15;1.95;;;15.20;99.90;;;;;;5093331;28;20036;-76
2022/09/19 12:45:24;;;;;;;12.77;1.98;;;15.20;99.90;;;;;;5094546;28;20177;-73
2022/09/19 12:48:14;;;;;;;13.27;2.33;;;15.20;99.90;;;;;;5077580;28;20403;-73
2022/09/19 12:50:47;;;;;;;16.48;2.40;;;15.20;99.90;;;;;;5110345;28;20506;-73
2022/09/19 12:53:42;;;;;;;10.65;1.70;;;15.20;99.90;;;;;;5099526;27;20085;-73
2022/09/19 12:56:15;;;;;;;11.93;2.00;;;15.30;99.90;;;;;;5092387;28;20412;-73
2022/09/19 12:59:09;;;;;;;10.02;1.80;;;15.30;99.90;;;;;;5093024;28;20048;-73
2022/09/19 13:01:47;;;;;;;11.70;1.90;;;15.30;99.90;;;;;;5093573;28;20040;-73
2022/09/19 13:04:27;;;;;;;10.35;1.50;;;15.30;99.90;;;;;;5122289;27;20063;-72
2022/09/19 13:06:58;;;;;;;14.60;1.92;;;15.30;99.90;;;;;;5094354;28;20054;-73
2022/09/19 13:09:34;;;;;;;12.32;1.98;;;15.40;99.90;;;;;;5092748;28;20065;-73
2022/09/19 13:12:18;;;;;;;14.13;1.77;;;15.40;99.90;;;;;;5097877;28;20032;-73
2022/09/19 13:15:06;;;;;;;11.18;2.05;;;15.50;99.90;;;;;;5108987;28;20040;-73
2022/09/19 13:23:38;;;;;;;8.48;1.30;;;15.30;99.90;;;;;;5105280;28;20107;-73
2022/09/19 13:26:16;;;;;;;12.07;1.35;;;15.10;99.90;;;;;;5093254;28;20079;-73
2022/09/19 13:28:49;;;;;;;9.98;1.85;;;15.10;99.90;;;;;;5097534;28;20036;-73
2022/09/19 13:31:17;;;;;;;9.48;1.90;;;15.00;99.90;;;;;;5134879;27;20089;-73
2022/09/19 13:33:50;;;;;;;13.50;1.83;;;15.10;99.90;;;;;;5087959;28;20172;-73
2022/09/19 13:36:22;;;;;;;10.65;1.80;;;15.10;99.90;;;;;;5103834;28;20032;-73
2022/09/19 13:38:50;;;;;;;12.48;1.50;;;15.20;99.90;;;;;;5109210;28;20039;-73